Data for 05/07/2010

Time Sea-Level Adjusted Pressure Absolute Pressure Temperature Relative Humidity Dew Point   
(mb) (inHg) (mb) (inHg) (C) (F) (%) (C) (F)
00:05 1024 30.24 853 25.19 -3.7 25.3 85 -5.9 21.4
00:10 1024 30.24 854 25.22 -3.9 25 85 -6.1 21.1
00:15 1024 30.24 853 25.19 -4 24.9 85 -6.2 20.9
00:20 1024 30.24 853 25.19 -4 24.8 84 -6.4 20.6
00:25 1024 30.24 854 25.22 -4.1 24.7 85 -6.3 20.6
00:30 1024 30.24 854 25.22 -4.3 24.3 85 -6.5 20.3
00:35 1024 30.24 854 25.22 -4.2 24.4 84 -6.6 20.2
00:40 1024 30.24 854 25.22 -4.2 24.4 84 -6.5 20.3
00:45 1024 30.24 854 25.22 -4.3 24.2 85 -6.6 20.2
00:50 1024 30.24 854 25.22 -4.5 23.9 86 -6.6 20.2
00:55 1024 30.24 854 25.22 -4.4 24 85 -6.6 20
01:00 1024 30.24 854 25.22 -4.5 24 85 -6.6 20.1
01:05 1025 30.27 854 25.22 -4.5 24 85 -6.7 19.9
01:10 1025 30.27 854 25.22 -4.2 24.5 83 -6.6 20.1
01:15 1025 30.27 854 25.22 -4.1 24.7 82 -6.6 20.1
01:20 1025 30.27 854 25.22 -4.2 24.4 84 -6.5 20.3
01:25 1025 30.27 854 25.22 -4.4 24.2 85 -6.6 20.1
01:30 1025 30.27 854 25.22 -4.4 24 84 -6.7 20
01:35 1025 30.27 854 25.22 -4.5 24 83 -6.9 19.5
01:40 1025 30.27 854 25.22 -4.3 24.2 84 -6.6 20.1
01:45 1025 30.27 854 25.22 -4.4 24.1 84 -6.7 19.9
01:50 1025 30.27 854 25.22 -4.4 24.2 83 -6.8 19.7
01:55 1025 30.27 854 25.22 -4.3 24.3 83 -6.8 19.7
02:00 1025 30.27 854 25.22 -4.2 24.4 83 -6.6 20.1
02:05 1025 30.27 854 25.22 -4.2 24.5 83 -6.7 20
02:10 1025 30.27 854 25.22 -4.1 24.7 82 -6.8 19.8
02:15 1025 30.27 854 25.22 -4 24.7 83 -6.5 20.2
02:20 1025 30.27 854 25.22 -4 24.8 81 -6.8 19.7
02:25 1025 30.27 854 25.22 -4 24.8 83 -6.5 20.3
02:30 1025 30.27 854 25.22 -4.1 24.7 84 -6.4 20.4
02:35 1025 30.27 854 25.22 -4.1 24.6 85 -6.3 20.6
02:40 1025 30.27 854 25.22 -4 24.7 85 -6.3 20.7
02:45 1025 30.27 854 25.22 -4.1 24.7 85 -6.3 20.7
02:50 1025 30.27 854 25.22 -4.1 24.6 82 -6.7 19.9
02:55 1025 30.27 854 25.22 -4 24.9 83 -6.4 20.4
03:00 1025 30.27 854 25.22 -4 24.9 83 -6.5 20.4
03:05 1025 30.27 854 25.22 -4 24.7 83 -6.5 20.2
03:10 1025 30.27 854 25.22 -4.1 24.7 83 -6.5 20.3
03:15 1025 30.27 854 25.22 -4.1 24.6 84 -6.4 20.4
03:20 1025 30.27 854 25.22 -4.1 24.6 84 -6.5 20.3
03:25 1025 30.27 854 25.22 -4.1 24.6 85 -6.3 20.7
03:30 1025 30.27 854 25.22 -4 24.8 84 -6.3 20.7
03:35 1025 30.27 854 25.22 -3.9 24.9 84 -6.2 20.8
03:40 1025 30.27 854 25.22 -3.8 25.1 84 -6.2 20.8
03:45 1025 30.27 854 25.22 -3.8 25.2 85 -6 21.2
03:50 1025 30.27 854 25.22 -3.9 25 82 -6.5 20.4
03:55 1025 30.27 854 25.22 -4.1 24.5 84 -6.5 20.2
04:00 1025 30.27 854 25.22 -4.2 24.4 83 -6.7 20
04:05 1025 30.27 854 25.22 -4.3 24.3 82 -6.9 19.7
04:10 1025 30.27 854 25.22 -4.3 24.2 81 -7 19.3
04:15 1025 30.27 854 25.22 -4.4 24.1 83 -6.9 19.6
04:20 1025 30.27 854 25.22 -4.3 24.3 82 -6.9 19.7
04:25 1025 30.27 854 25.22 -4.3 24.3 83 -6.8 19.8
04:30 1025 30.27 854 25.22 -4.3 24.3 82 -6.9 19.5
04:35 1025 30.27 854 25.22 -4.1 24.7 81 -6.8 19.7
04:40 1025 30.27 854 25.22 -3.9 25.1 80 -6.8 19.8
04:45 1025 30.27 854 25.22 -3.9 25 81 -6.7 19.9
04:50 1025 30.27 854 25.22 -4 24.8 82 -6.7 19.9
04:55 1025 30.27 854 25.22 -4.1 24.7 80 -7 19.3
05:00 1025 30.27 854 25.22 -3.9 24.9 81 -6.8 19.8
05:05 1025 30.27 854 25.22 -3.9 25.1 81 -6.7 19.9
05:10 1025 30.27 855 25.25 -3.7 25.3 82 -6.4 20.5
05:15 1025 30.27 855 25.25 -3.7 25.3 82 -6.3 20.7
05:20 1025 30.27 855 25.25 -3.8 25.1 84 -6.1 21
05:25 1025 30.27 855 25.25 -3.8 25.1 84 -6.2 20.8
05:30 1025 30.27 855 25.25 -3.8 25.2 84 -6.1 21
05:35 1025 30.27 855 25.25 -3.7 25.3 84 -6.1 21
05:40 1025 30.27 855 25.25 -3.8 25.2 82 -6.3 20.6
05:45 1025 30.27 855 25.25 -3.9 24.9 83 -6.5 20.4
05:50 1025 30.27 855 25.25 -4 24.7 83 -6.4 20.4
05:55 1025 30.27 855 25.25 -4 24.8 83 -6.5 20.4
06:00 1025 30.27 855 25.25 -4 24.8 83 -6.5 20.4
06:05 1025 30.27 855 25.25 -4.1 24.6 83 -6.6 20.2
06:10 1025 30.27 855 25.25 -4.2 24.5 84 -6.5 20.4
06:15 1026 30.3 855 25.25 -4.1 24.5 85 -6.4 20.5
06:20 1026 30.3 855 25.25 -4.1 24.7 85 -6.3 20.7
06:25 1026 30.3 855 25.25 -4.1 24.7 84 -6.3 20.6
06:30 1026 30.3 855 25.25 -4 24.7 84 -6.4 20.4
06:35 1026 30.3 855 25.25 -3.8 25.1 83 -6.3 20.7
06:40 1026 30.3 855 25.25 -3.6 25.5 80 -6.5 20.3
06:45 1026 30.3 855 25.25 -3.3 26.1 78 -6.5 20.2
06:50 1026 30.3 855 25.25 -3.2 26.3 77 -6.6 20.1
06:55 1026 30.3 855 25.25 -3.2 26.2 78 -6.5 20.3
07:00 1026 30.3 855 25.25 -3.2 26.3 78 -6.4 20.4
07:05 1026 30.3 855 25.25 -3.4 25.9 78 -6.7 20
07:10 1026 30.3 855 25.25 -3.5 25.8 79 -6.6 20.1
07:15 1026 30.3 855 25.25 -3.5 25.8 79 -6.6 20.2
07:20 1026 30.3 855 25.25 -3.2 26.3 77 -6.7 20
07:25 1026 30.3 855 25.25 -3 26.6 78 -6.4 20.5
07:30 1026 30.3 855 25.25 -2.8 26.9 74 -6.8 19.8
07:35 1026 30.3 855 25.25 -2.5 27.5 74 -6.6 20.1
07:40 1026 30.3 855 25.25 -2 28.3 70 -6.7 19.9
07:45 1026 30.3 855 25.25 -1.4 29.5 68 -6.6 20.1
07:50 1026 30.3 855 25.25 -1 30.1 66 -6.7 19.9
07:55 1026 30.3 855 25.25 -0.5 31.2 66 -6.1 20.9
08:00 1026 30.3 855 25.25 -0.1 31.7 63 -6.3 20.6
08:05 1026 30.3 855 25.25 -0.2 31.7 65 -6 21.2
08:10 1026 30.3 855 25.25 -0.4 31.2 64 -6.4 20.6
08:15 1026 30.3 855 25.25 -0 31.9 65 -5.7 21.7
08:20 1026 30.3 855 25.25 0.1 32.2 63 -6.1 21
08:25 1026 30.3 855 25.25 0.2 32.4 64 -5.9 21.4
08:30 1026 30.3 855 25.25 0.2 32.4 65 -5.7 21.8
08:35 1026 30.3 855 25.25 0.1 32.3 65 -5.7 21.7
08:40 1026 30.3 855 25.25 0.1 32.2 65 -5.7 21.8
08:45 1026 30.3 855 25.25 -0.4 31.3 67 -5.8 21.5
08:50 1026 30.3 855 25.25 -0.2 31.7 67 -5.5 22.1
08:55 1026 30.3 855 25.25 0 32.1 67 -5.4 22.3
09:00 1026 30.3 855 25.25 0.9 33.7 60 -6.1 21.1
09:05 1026 30.3 855 25.25 1.6 34.9 60 -5.4 22.3
09:10 1026 30.3 855 25.25 1.5 34.8 60 -5.4 22.2
09:15 1026 30.3 855 25.25 1.2 34.2 60 -5.7 21.8
09:20 1026 30.3 855 25.25 1.3 34.3 58 -6.1 21
09:25 1026 30.3 855 25.25 1.6 34.8 57 -6 21.2
09:30 1026 30.3 855 25.25 1.8 35.2 57 -5.8 21.6
09:35 1026 30.3 855 25.25 2.3 36.1 59 -4.9 23.1
09:40 1026 30.3 855 25.25 2.2 36 55 -5.9 21.4
09:45 1026 30.3 855 25.25 1.1 33.9 60 -5.8 21.6
09:50 1026 30.3 855 25.25 0.7 33.2 60 -6.3 20.6
09:55 1026 30.3 855 25.25 0.7 33.2 60 -6.2 20.8
10:00 1026 30.3 855 25.25 0.9 33.7 58 -6.5 20.3
10:05 1026 30.3 855 25.25 1.5 34.8 58 -5.8 21.5
10:10 1026 30.3 855 25.25 2.3 36.1 54 -6 21.2
10:15 1026 30.3 855 25.25 2 35.5 57 -5.6 22
10:20 1026 30.3 855 25.25 1.4 34.5 58 -6.1 21.1
10:25 1026 30.3 855 25.25 1.4 34.5 57 -6.3 20.7
10:30 1026 30.3 855 25.25 1.6 34.8 55 -6.5 20.3
10:35 1026 30.3 855 25.25 2.1 35.8 51 -6.9 19.6
10:40 1026 30.3 855 25.25 2.2 35.9 54 -6.1 21
10:45 1026 30.3 855 25.25 2.2 35.9 54 -6.1 21
10:50 1026 30.3 855 25.25 2.5 36.4 52 -6.4 20.4
10:55 1026 30.3 855 25.25 2.5 36.4 51 -6.6 20.1
11:00 1026 30.3 855 25.25 2.3 36.2 52 -6.5 20.2
11:05 1026 30.3 855 25.25 2.5 36.5 49 -7.3 18.9
11:10 1026 30.3 855 25.25 3.9 39.1 45 -6.8 19.7
11:15 1026 30.3 855 25.25 3.8 38.8 48 -6.2 20.9
11:20 1026 30.3 855 25.25 2.2 36 55 -6 21.3
11:25 1026 30.3 855 25.25 2.3 36.1 53 -6.2 20.8
11:30 1026 30.3 855 25.25 2.8 37.1 51 -6.3 20.6
11:35 1026 30.3 855 25.25 2.2 36 55 -6 21.2
11:40 1026 30.3 855 25.25 1.9 35.4 53 -6.6 20.1
11:45 1026 30.3 855 25.25 2.7 36.8 52 -6.3 20.6
11:50 1026 30.3 855 25.25 1.6 34.9 55 -6.4 20.6
11:55 1026 30.3 855 25.25 2.7 36.8 50 -6.8 19.7
12:00 1026 30.3 855 25.25 3 37.5 50 -6.4 20.5
12:05 1026 30.3 855 25.25 4.2 39.6 46 -6.4 20.5
12:10 1026 30.3 855 25.25 3.6 38.6 47 -6.6 20.2
12:15 1026 30.3 855 25.25 3.3 38 49 -6.4 20.5
12:20 1026 30.3 855 25.25 4.1 39.4 44 -7.1 19.1
12:25 1026 30.3 855 25.25 4.9 40.9 47 -5.3 22.4
12:30 1026 30.3 855 25.25 4.2 39.5 50 -5.4 22.2
12:35 1026 30.3 855 25.25 2.7 36.9 52 -6.2 20.9
12:40 1026 30.3 855 25.25 2.5 36.5 52 -6.3 20.6
12:45 1026 30.3 855 25.25 2.6 36.7 49 -7 19.4
12:50 1026 30.3 855 25.25 2.4 36.3 50 -7 19.4
12:55 1025 30.27 855 25.25 3.6 38.5 46 -6.9 19.6
13:00 1025 30.27 855 25.25 3.2 37.8 47 -7 19.5
13:05 1025 30.27 855 25.25 3.8 38.8 43 -7.6 18.3
13:10 1025 30.27 855 25.25 4.6 40.4 44 -6.5 20.4
13:15 1025 30.27 855 25.25 5.4 41.8 40 -7.2 19.1
13:20 1025 30.27 855 25.25 5.3 41.5 42 -6.5 20.3
13:25 1025 30.27 855 25.25 4.7 40.5 46 -6 21.2
13:30 1025 30.27 855 25.25 4.6 40.3 44 -6.6 20.2
13:35 1025 30.27 855 25.25 4.7 40.4 45 -6.3 20.7
13:40 1025 30.27 855 25.25 5.4 41.8 41 -6.9 19.5
13:45 1025 30.27 855 25.25 4.3 39.8 44 -6.9 19.6
13:50 1025 30.27 855 25.25 4.1 39.4 45 -6.8 19.7
13:55 1025 30.27 855 25.25 4.1 39.4 44 -6.9 19.5
14:00 1025 30.27 855 25.25 4.8 40.7 42 -7 19.4
14:05 1025 30.27 854 25.22 5.6 42 41 -6.6 20.2
14:10 1025 30.27 854 25.22 6 42.7 37 -7.7 18.1
14:15 1025 30.27 854 25.22 6.3 43.3 38 -6.9 19.6
14:20 1025 30.27 854 25.22 6.7 44 38 -6.5 20.2
14:25 1025 30.27 854 25.22 6.3 43.3 38 -7.1 19.3
14:30 1025 30.27 854 25.22 5.2 41.4 42 -6.7 19.9
14:35 1025 30.27 854 25.22 5.9 42.6 38 -7.2 19.1
14:40 1025 30.27 854 25.22 6.6 43.8 31 -9.4 15.1
14:45 1025 30.27 854 25.22 6.7 44.1 33 -8.3 17.1
14:50 1025 30.27 854 25.22 6.4 43.5 35 -8.1 17.4
14:55 1025 30.27 854 25.22 6.5 43.8 29 -10.3 13.5
15:00 1025 30.27 854 25.22 6.9 44.5 31 -9.1 15.6
15:05 1025 30.27 854 25.22 6.9 44.4 32 -8.5 16.7
15:10 1025 30.27 854 25.22 7.2 45 30 -9.2 15.5
15:15 1025 30.27 854 25.22 6.8 44.2 27 -10.8 12.6
15:20 1025 30.27 854 25.22 6.1 43.1 30 -10.1 13.8
15:25 1025 30.27 854 25.22 5.9 42.7 29 -10.6 12.8
15:30 1025 30.27 854 25.22 6.2 43.1 25 -12.7 9.1
15:35 1025 30.27 854 25.22 6 42.8 27 -11.8 10.7
15:40 1025 30.27 854 25.22 6.2 43.2 27 -11.4 11.5
15:45 1025 30.27 854 25.22 6.6 43.8 27 -11 12.1
15:50 1025 30.27 854 25.22 6 42.8 28 -11.2 11.9
15:55 1025 30.27 854 25.22 6.2 43.1 26 -11.9 10.6
16:00 1025 30.27 854 25.22 7.2 45 26 -11.1 12.1
16:05 1025 30.27 854 25.22 7.9 46.1 22 -12.8 9
16:10 1025 30.27 854 25.22 7.6 45.6 20 -13.7 7.3
16:15 1025 30.27 854 25.22 6.4 43.6 21 -14.6 5.7
16:20 1025 30.27 854 25.22 6.2 43.2 24 -13 8.6
16:25 1025 30.27 854 25.22 6.9 44.4 23 -12.6 9.2
16:30 1024 30.24 854 25.22 7.1 44.8 26 -11.1 12.1
16:35 1024 30.24 854 25.22 6.3 43.4 26 -11.7 10.9
16:40 1024 30.24 854 25.22 6.9 44.5 27 -10.8 12.6
16:45 1024 30.24 853 25.19 7.7 45.9 21 -13.3 8
16:50 1024 30.24 853 25.19 7.7 45.9 20 -13.9 7
16:55 1024 30.24 853 25.19 7.8 46 20 -13.7 7.3
17:00 1024 30.24 853 25.19 7.8 46 21 -13.1 8.4
17:05 1024 30.24 853 25.19 7.6 45.6 19 -14.5 5.9
17:10 1024 30.24 853 25.19 7.5 45.5 17 -16.1 3
17:15 1024 30.24 853 25.19 8 46.3 19 -14.5 5.9
17:20 1024 30.24 853 25.19 7.8 46 17 -15.9 3.3
17:25 1024 30.24 853 25.19 7.3 45.2 16 -16.7 1.9
17:30 1024 30.24 853 25.19 8.1 46.6 16 -16 3.2
17:35 1024 30.24 853 25.19 7.7 45.9 17 -15.9 3.3
17:40 1024 30.24 853 25.19 7.3 45.2 17 -16.1 2.9
17:45 1024 30.24 853 25.19 7.7 45.8 20 -13.7 7.4
17:50 1024 30.24 853 25.19 8 46.4 19 -14.3 6.3
17:55 1024 30.24 853 25.19 7 44.6 21 -13.8 7.1
18:00 1024 30.24 853 25.19 7.1 44.7 18 -15.5 4.1
18:05 1024 30.24 853 25.19 7.4 45.3 18 -15.2 4.6
18:10 1024 30.24 853 25.19 7.8 46.1 19 -14.6 5.8
18:15 1024 30.24 853 25.19 7.7 45.9 18 -15.2 4.6
18:20 1024 30.24 853 25.19 7.1 44.7 22 -13.2 8.3
18:25 1024 30.24 853 25.19 6.6 43.8 23 -13.2 8.2
18:30 1024 30.24 853 25.19 6.2 43.2 23 -13.5 7.6
18:35 1024 30.24 853 25.19 6.2 43.1 22 -14 6.9
18:40 1024 30.24 853 25.19 6.3 43.3 23 -13.4 7.9
18:45 1024 30.24 853 25.19 6.6 43.8 22 -13.8 7.1
18:50 1024 30.24 853 25.19 6.2 43.2 23 -13.3 8.1
18:55 1024 30.24 853 25.19 6 42.7 24 -13.2 8.3
19:00 1024 30.24 853 25.19 5.8 42.5 24 -13.5 7.7
19:05 1024 30.24 853 25.19 5.7 42.3 23 -14.1 6.6
19:10 1024 30.24 853 25.19 5.7 42.3 25 -12.8 8.9
19:15 1024 30.24 853 25.19 5.6 42 25 -13 8.7
19:20 1024 30.24 853 25.19 5.5 41.9 25 -13 8.6
19:25 1024 30.24 853 25.19 5.5 41.9 26 -12.6 9.3
19:30 1024 30.24 853 25.19 5.5 41.9 26 -12.6 9.3
19:35 1024 30.24 853 25.19 5.5 41.9 26 -12.8 9
19:40 1023 30.21 853 25.19 5.5 41.9 25 -13.2 8.2
19:45 1023 30.21 853 25.19 5.2 41.4 26 -12.8 9
19:50 1023 30.21 853 25.19 5.2 41.4 27 -12.5 9.5
19:55 1023 30.21 853 25.19 5.2 41.3 27 -12.5 9.5
20:00 1024 30.24 853 25.19 5 41.1 28 -11.9 10.6
20:05 1024 30.24 853 25.19 5 41 31 -11 12.3
20:10 1024 30.24 853 25.19 4.9 40.8 31 -10.8 12.5
20:15 1024 30.24 853 25.19 4.8 40.6 32 -10.5 13.1
20:20 1024 30.24 853 25.19 4.7 40.5 32 -10.5 13.1
20:25 1024 30.24 853 25.19 4.6 40.2 37 -9 15.8
20:30 1024 30.24 853 25.19 4.3 39.7 39 -8.3 17
20:35 1024 30.24 853 25.19 4 39.2 40 -8.4 16.9
20:40 1024 30.24 853 25.19 3.8 38.9 41 -8.3 17.1
20:45 1024 30.24 853 25.19 3.6 38.4 42 -8.1 17.4
20:50 1024 30.24 853 25.19 3.2 37.8 44 -7.7 18.1
20:55 1024 30.24 853 25.19 2.9 37.3 46 -7.7 18.2
21:00 1024 30.24 853 25.19 2.7 36.9 47 -7.4 18.6
21:05 1024 30.24 853 25.19 2.4 36.3 49 -7.2 19.1
21:10 1024 30.24 853 25.19 2.1 35.9 51 -6.9 19.7
21:15 1024 30.24 853 25.19 1.9 35.3 53 -6.8 19.7
21:20 1024 30.24 853 25.19 1.7 35.1 53 -6.9 19.6
21:25 1024 30.24 853 25.19 1.4 34.5 58 -6 21.2
21:30 1024 30.24 853 25.19 1.1 33.9 58 -6.3 20.6
21:35 1024 30.24 853 25.19 1.2 34.1 57 -6.5 20.3
21:40 1024 30.24 853 25.19 1.2 34.2 56 -6.6 20.2
21:45 1024 30.24 853 25.19 1.3 34.3 56 -6.6 20.2
21:50 1024 30.24 853 25.19 1.3 34.3 55 -6.8 19.8
21:55 1024 30.24 853 25.19 1.3 34.3 53 -7.2 19.1
22:00 1024 30.24 853 25.19 1.4 34.5 53 -7.1 19.2
22:05 1024 30.24 853 25.19 1.3 34.4 53 -7.2 19
22:10 1024 30.24 853 25.19 1.3 34.4 52 -7.4 18.7
22:15 1024 30.24 853 25.19 1.5 34.6 49 -8.1 17.5
22:20 1024 30.24 853 25.19 1.7 35.1 50 -7.5 18.4
22:25 1024 30.24 853 25.19 1.7 35.1 52 -7.3 18.9
22:30 1024 30.24 853 25.19 1.6 34.9 53 -7 19.5
22:35 1024 30.24 853 25.19 1.6 34.9 54 -6.8 19.7
22:40 1024 30.24 853 25.19 1.5 34.7 55 -6.7 20
22:45 1024 30.24 853 25.19 1.4 34.6 55 -6.6 20.1
22:50 1024 30.24 853 25.19 1.3 34.4 55 -6.6 20
22:55 1024 30.24 853 25.19 1.4 34.5 56 -6.6 20.2
23:00 1024 30.24 853 25.19 1.4 34.4 56 -6.4 20.4
23:05 1024 30.24 853 25.19 1.2 34.2 57 -6.5 20.3
23:10 1024 30.24 853 25.19 1.3 34.3 56 -6.5 20.3
23:15 1024 30.24 853 25.19 1.3 34.3 56 -6.5 20.3
23:20 1024 30.24 853 25.19 1.3 34.3 56 -6.5 20.3
23:25 1023 30.21 853 25.19 1.2 34.1 57 -6.4 20.4
23:30 1023 30.21 853 25.19 1.2 34.1 57 -6.5 20.3
23:35 1023 30.21 853 25.19 1.2 34.1 58 -6.3 20.7
23:40 1023 30.21 853 25.19 1 33.8 58 -6.3 20.7
23:45 1023 30.21 853 25.19 1 33.9 59 -6.2 20.9
23:50 1023 30.21 853 25.19 1 33.8 59 -6.1 21.1
23:55 1023 30.21 853 25.19 0.9 33.7 60 -6 21.2
24:00 1023 30.21 852 25.16 0.8 33.5 61 -5.9 21.3